Bethel, Maine
Current Conditions -  °F | °C
As of 4:52 AM on Monday 26 Jan 2015 (Local Time) from KBML Reporting Station
Clear Clear  
Wind Chill: -13°   Ceiling: Unl
Heat Index: -13°   Visibility: 10mi
Dew Point: -20°   Wind: 0mph
Humidity: 71%   Direction: NA
Pressure: 30.05"   Gusts: NA
Location:  44.4°N, 70.79°W
Report Text: KBML 260952Z AUTO 00000KT 10SM CLR M25/M29 A3005 RMK AO2 SLP211 T12501289
Loading
Personal Weather Stations






























Interactive Weather Map New forecast layout! Learn more

10-Day Weather Forecast

Advertisements
Track Severe Weather on mobile